Time;durP1;ratioP1;P1;durP2;ratioP2;P2;SDS_P1;SDS_P2;PMS_P1;PMS_P2;Temp;Humidity;BMP_temperature;BMP_pressure;BME280_temperature;BME280_humidity;BME280_pressure;Samples;Min_cycle;Max_cycle;Signal;HPM_P1;HPM_P2
2021/12/24 00:00:55;;;;;;;25.33;11.02;;;6.00;99.90;;;;;;5031938;28;20029;-59
2021/12/24 00:03:21;;;;;;;22.52;10.13;;;6.10;99.90;;;;;;5033212;28;20025;-58
2021/12/24 00:05:47;;;;;;;21.10;10.52;;;6.20;99.90;;;;;;5033147;28;20040;-57
2021/12/24 00:08:12;;;;;;;25.67;10.45;;;6.30;99.90;;;;;;5032700;28;20029;-54
2021/12/24 00:10:42;;;;;;;28.55;11.23;;;6.40;99.90;;;;;;5022594;28;20069;-55
2021/12/24 00:13:13;;;;;;;20.35;9.70;;;6.50;99.90;;;;;;5013544;28;20026;-57
2021/12/24 00:18:38;;;;;;;24.58;9.90;;;6.70;99.90;;;;;;5013714;28;20022;-55
2021/12/24 00:35:10;;;;;;;25.75;11.05;;;7.20;99.90;;;;;;5036957;28;20052;-52
2021/12/24 00:37:36;;;;;;;20.83;9.07;;;7.30;99.90;;;;;;5037157;28;20056;-52
2021/12/24 00:40:14;;;;;;;19.08;9.65;;;7.40;99.90;;;;;;5037128;28;20049;-54
2021/12/24 00:42:43;;;;;;;25.25;11.90;;;7.40;99.90;;;;;;5036723;28;20100;-52
2021/12/24 00:45:10;;;;;;;22.40;10.77;;;7.40;99.90;;;;;;5036681;28;20035;-52
2021/12/24 00:47:44;;;;;;;34.65;13.48;;;7.40;99.90;;;;;;5036386;28;20033;-50
2021/12/24 00:50:14;;;;;;;26.30;10.77;;;7.40;99.90;;;;;;5031855;28;20022;-54
2021/12/24 00:55:12;;;;;;;26.17;11.48;;;7.40;99.90;;;;;;5017008;28;20026;-57
2021/12/24 00:57:41;;;;;;;35.08;15.15;;;7.40;99.90;;;;;;5019192;28;20021;-56
2021/12/24 01:00:17;;;;;;;35.70;14.82;;;7.30;99.90;;;;;;5036387;28;20056;-54
2021/12/24 01:02:44;;;;;;;32.95;13.02;;;7.30;99.90;;;;;;5036573;28;20018;-56
2021/12/24 01:05:10;;;;;;;26.88;11.02;;;7.30;99.90;;;;;;5035593;28;20029;-54
2021/12/24 01:07:36;;;;;;;28.88;10.82;;;7.30;99.90;;;;;;5036234;28;20029;-57
2021/12/24 01:10:05;;;;;;;23.52;10.90;;;7.20;99.90;;;;;;5036038;28;20079;-59
2021/12/24 01:12:31;;;;;;;23.15;10.57;;;7.20;99.90;;;;;;5036004;28;20109;-59
2021/12/24 01:14:56;;;;;;;24.75;12.13;;;7.20;99.90;;;;;;5036012;28;20456;-56
2021/12/24 01:19:50;;;;;;;22.17;10.07;;;7.30;99.90;;;;;;5036032;28;20018;-59
2021/12/24 01:24:59;;;;;;;23.40;9.63;;;7.30;99.90;;;;;;5036498;28;20140;-58
2021/12/24 01:38:48;;;;;;;17.42;9.38;;;7.60;99.90;;;;;;5036224;28;20040;-59
2021/12/24 01:42:39;;;;;;;19.40;9.32;;;7.70;99.90;;;;;;5034405;28;20022;-59
2021/12/24 01:44:00;;;;;;;17.83;8.38;;;7.70;99.90;;;;;;5034986;28;20038;-57
2021/12/24 01:46:25;;;;;;;16.33;8.13;;;7.80;99.90;;;;;;5035454;28;20032;-59
2021/12/24 01:48:51;;;;;;;16.02;8.30;;;7.80;99.90;;;;;;5034298;28;20025;-58
2021/12/24 01:51:16;;;;;;;17.20;8.43;;;7.70;99.90;;;;;;5034953;28;20075;-59
2021/12/24 01:53:42;;;;;;;18.50;8.65;;;7.70;99.90;;;;;;5035023;28;20021;-57
2021/12/24 01:56:08;;;;;;;16.17;9.05;;;7.80;99.90;;;;;;5035340;28;20472;-58
2021/12/24 01:58:33;;;;;;;20.95;8.77;;;7.80;99.90;;;;;;5034118;28;20029;-56
2021/12/24 02:00:59;;;;;;;18.30;9.32;;;7.90;99.90;;;;;;5035332;28;20036;-56
2021/12/24 02:03:25;;;;;;;23.63;9.40;;;7.90;99.90;;;;;;5035239;28;20025;-55
2021/12/24 02:05:50;;;;;;;20.73;9.50;;;7.90;99.90;;;;;;5035458;28;20052;-56
2021/12/24 02:08:17;;;;;;;22.08;10.27;;;7.90;99.90;;;;;;5035011;28;20030;-59
2021/12/24 02:10:43;;;;;;;20.63;10.52;;;7.90;99.90;;;;;;5035024;28;20048;-57
2021/12/24 02:13:09;;;;;;;30.10;9.73;;;8.00;99.90;;;;;;5035039;28;20048;-57
2021/12/24 02:16:02;;;;;;;18.30;10.70;;;8.00;99.90;;;;;;5034937;28;20022;-57
2021/12/24 02:29:19;;;;;;;17.27;8.52;;;8.10;99.90;;;;;;5035284;28;20040;-58
2021/12/24 02:31:44;;;;;;;16.20;7.57;;;8.10;99.90;;;;;;5030664;28;20025;-60
2021/12/24 02:34:10;;;;;;;13.93;7.15;;;8.10;99.90;;;;;;5013690;28;20026;-59
2021/12/24 02:36:36;;;;;;;23.05;10.75;;;8.10;99.90;;;;;;5014036;28;20037;-59
2021/12/24 02:39:03;;;;;;;24.52;11.75;;;8.10;99.90;;;;;;5014795;28;20018;-58
2021/12/24 02:41:29;;;;;;;19.48;10.05;;;8.10;99.90;;;;;;5013487;28;20033;-57
2021/12/24 02:43:55;;;;;;;19.90;8.93;;;8.10;99.90;;;;;;5014781;28;20026;-58
2021/12/24 02:46:34;;;;;;;22.65;8.60;;;8.10;99.90;;;;;;5013682;28;20029;-57
2021/12/24 02:49:11;;;;;;;15.15;7.53;;;8.10;99.90;;;;;;5014639;28;20037;-59
2021/12/24 02:54:22;;;;;;;15.40;7.72;;;8.00;99.90;;;;;;5014351;28;20080;-58
2021/12/24 02:56:52;;;;;;;18.90;9.43;;;8.00;99.90;;;;;;5014506;28;20026;-57
2021/12/24 02:59:24;;;;;;;20.15;8.02;;;8.00;99.90;;;;;;5014019;28;20026;-59
2021/12/24 03:01:50;;;;;;;22.20;9.18;;;8.00;99.90;;;;;;5014713;28;20134;-58
2021/12/24 03:04:16;;;;;;;17.48;7.95;;;8.00;99.90;;;;;;5013053;28;20172;-55
2021/12/24 03:06:46;;;;;;;18.73;7.55;;;8.10;99.90;;;;;;5013546;28;20026;-59
2021/12/24 03:09:15;;;;;;;15.45;7.60;;;8.10;99.90;;;;;;5012969;28;20076;-59
2021/12/24 03:11:41;;;;;;;13.35;7.47;;;8.10;99.90;;;;;;5013172;28;20029;-59
2021/12/24 03:14:09;;;;;;;18.88;8.52;;;8.20;99.90;;;;;;5012960;28;20022;-57
2021/12/24 03:16:36;;;;;;;15.65;8.23;;;8.20;99.90;;;;;;5012857;28;20022;-59
2021/12/24 03:19:03;;;;;;;17.88;7.55;;;8.20;99.90;;;;;;5012770;28;20484;-60
2021/12/24 03:21:35;;;;;;;19.02;9.25;;;8.20;99.90;;;;;;5012904;28;20022;-57
2021/12/24 03:26:31;;;;;;;18.38;8.93;;;8.20;99.90;;;;;;5014309;28;20042;-60
2021/12/24 03:28:57;;;;;;;14.90;7.97;;;8.20;99.90;;;;;;5013968;28;20168;-59
2021/12/24 03:31:22;;;;;;;13.77;6.57;;;8.20;99.90;;;;;;5012604;28;20097;-56
2021/12/24 03:33:49;;;;;;;14.98;7.75;;;8.30;99.90;;;;;;5014144;28;20045;-60
2021/12/24 03:36:15;;;;;;;12.75;7.45;;;8.30;99.90;;;;;;5013994;28;20053;-57
2021/12/24 03:38:41;;;;;;;18.13;7.63;;;8.30;99.90;;;;;;5013853;28;20034;-58
2021/12/24 03:41:07;;;;;;;21.00;10.30;;;8.30;99.90;;;;;;5013816;28;20034;-59
2021/12/24 03:43:33;;;;;;;15.40;8.27;;;8.30;99.90;;;;;;5012483;28;20025;-57
2021/12/24 03:46:01;;;;;;;13.82;6.53;;;8.30;99.90;;;;;;5012736;28;20033;-55
2021/12/24 03:48:42;;;;;;;15.00;7.97;;;8.30;99.90;;;;;;5012528;28;20040;-59
2021/12/24 03:56:24;;;;;;;18.63;8.30;;;8.30;99.90;;;;;;5014145;28;20381;-57
2021/12/24 03:58:50;;;;;;;20.45;10.25;;;8.30;99.90;;;;;;5012358;28;20026;-59
2021/12/24 04:01:16;;;;;;;13.88;6.88;;;8.30;99.90;;;;;;5013143;28;20102;-58
2021/12/24 04:03:41;;;;;;;12.88;6.97;;;8.30;99.90;;;;;;5012343;28;20037;-58
2021/12/24 04:06:07;;;;;;;11.27;5.75;;;8.30;99.90;;;;;;5014247;28;20121;-59
2021/12/24 04:08:33;;;;;;;12.60;6.55;;;8.40;99.90;;;;;;5016890;28;20028;-57
2021/12/24 04:10:59;;;;;;;14.70;7.05;;;8.40;99.90;;;;;;5017170;28;20037;-59
2021/12/24 04:13:24;;;;;;;10.50;5.35;;;8.40;99.90;;;;;;5016520;28;20057;-59
2021/12/24 04:15:50;;;;;;;10.65;5.50;;;8.30;99.90;;;;;;5017317;28;20088;-60
2021/12/24 04:18:34;;;;;;;9.23;4.97;;;8.40;99.90;;;;;;5016246;28;20025;-57
2021/12/24 04:26:32;;;;;;;9.43;4.80;;;8.50;99.90;;;;;;5017636;28;20112;-56
2021/12/24 04:28:58;;;;;;;8.27;4.22;;;8.50;99.90;;;;;;5016393;28;20032;-57
2021/12/24 04:31:31;;;;;;;13.18;5.10;;;8.50;99.90;;;;;;5017138;28;20026;-59
2021/12/24 04:34:00;;;;;;;12.00;5.28;;;8.50;99.90;;;;;;5016314;28;20025;-58
2021/12/24 04:39:10;;;;;;;9.18;4.75;;;8.50;99.90;;;;;;5016993;28;20022;-57
2021/12/24 05:01:10;;;;;;;7.88;4.25;;;8.50;99.90;;;;;;5017152;28;20084;-57
2021/12/24 05:01:39;;;;;;;11.77;5.28;;;8.50;99.90;;;;;;5016845;28;20022;-57
2021/12/24 05:03:59;;;;;;;8.50;4.20;;;8.50;99.90;;;;;;5016673;28;20026;-57
2021/12/24 05:11:20;;;;;;;7.45;3.97;;;8.40;99.90;;;;;;5016779;28;20022;-60
2021/12/24 05:13:47;;;;;;;7.05;3.58;;;8.40;99.90;;;;;;5016471;28;20101;-59
2021/12/24 05:21:35;;;;;;;6.72;3.30;;;8.40;99.90;;;;;;5016595;28;20060;-58
2021/12/24 05:24:06;;;;;;;12.05;4.43;;;8.40;99.90;;;;;;5015084;28;20048;-56
2021/12/24 05:26:32;;;;;;;10.43;4.88;;;8.40;99.90;;;;;;5014933;28;20030;-57
2021/12/24 05:28:59;;;;;;;5.35;3.10;;;8.30;99.90;;;;;;5014895;28;20029;-59
2021/12/24 05:31:25;;;;;;;5.78;2.75;;;8.30;99.90;;;;;;5016014;28;20029;-58
2021/12/24 05:33:51;;;;;;;10.70;4.80;;;8.30;99.90;;;;;;5016291;28;20037;-51
2021/12/24 05:36:17;;;;;;;6.57;3.17;;;8.30;99.90;;;;;;5015917;28;20048;-52
2021/12/24 05:38:43;;;;;;;48.50;16.38;;;8.30;99.90;;;;;;5014667;28;20022;-53
2021/12/24 05:41:10;;;;;;;22.77;8.45;;;8.30;99.90;;;;;;5014698;28;20052;-52
2021/12/24 05:43:36;;;;;;;19.30;7.72;;;8.30;99.90;;;;;;5015909;28;20018;-49
2021/12/24 05:46:02;;;;;;;20.35;8.73;;;8.40;99.90;;;;;;5015759;28;20030;-51
2021/12/24 05:48:28;;;;;;;11.20;6.15;;;8.40;99.90;;;;;;5016112;28;20034;-50
2021/12/24 05:50:54;;;;;;;13.23;5.18;;;8.40;99.90;;;;;;5014631;28;20080;-51
2021/12/24 05:53:20;;;;;;;14.65;7.32;;;8.40;99.90;;;;;;5014547;28;20116;-49
2021/12/24 05:55:45;;;;;;;12.23;5.50;;;8.40;99.90;;;;;;5015501;28;20026;-50
2021/12/24 05:58:11;;;;;;;8.90;4.40;;;8.50;99.90;;;;;;5015899;28;20101;-49
2021/12/24 06:00:39;;;;;;;11.15;6.03;;;8.40;99.90;;;;;;5014824;28;20030;-51
2021/12/24 06:03:07;;;;;;;14.43;5.97;;;8.40;99.90;;;;;;5015827;28;20056;-52
2021/12/24 06:05:34;;;;;;;8.55;4.30;;;8.40;99.90;;;;;;5015425;28;20106;-49
2021/12/24 06:08:00;;;;;;;12.40;6.57;;;8.50;99.90;;;;;;5015374;28;20049;-51
2021/12/24 06:10:25;;;;;;;13.02;5.82;;;8.40;99.90;;;;;;5015311;28;20389;-53
2021/12/24 06:12:51;;;;;;;8.05;4.78;;;8.40;99.90;;;;;;5015324;28;20076;-53
2021/12/24 06:15:22;;;;;;;15.25;7.70;;;8.40;99.90;;;;;;5014012;28;20022;-53
2021/12/24 06:17:51;;;;;;;8.73;5.18;;;8.40;99.90;;;;;;5015286;28;20017;-52
2021/12/24 06:20:17;;;;;;;7.95;4.80;;;8.30;99.90;;;;;;5015270;28;20018;-54
2021/12/24 06:22:42;;;;;;;13.82;6.65;;;8.20;99.90;;;;;;5015168;28;20083;-53
2021/12/24 06:25:08;;;;;;;18.42;10.35;;;8.20;99.90;;;;;;5015019;28;20032;-52
2021/12/24 06:27:34;;;;;;;8.25;4.75;;;8.20;99.90;;;;;;5015094;28;20036;-52
2021/12/24 06:30:00;;;;;;;9.07;5.45;;;8.20;99.90;;;;;;5014628;28;20130;-54
2021/12/24 06:32:26;;;;;;;9.05;4.95;;;8.20;99.90;;;;;;5015110;28;20022;-57
2021/12/24 06:34:52;;;;;;;6.20;4.35;;;8.20;99.90;;;;;;5015012;28;20092;-56
2021/12/24 06:37:17;;;;;;;6.13;3.92;;;8.20;99.90;;;;;;5014933;28;20018;-56
2021/12/24 06:39:43;;;;;;;6.82;3.10;;;8.30;99.90;;;;;;5015288;28;20028;-55
2021/12/24 06:42:09;;;;;;;7.68;4.68;;;8.30;99.90;;;;;;5015164;28;20030;-55
2021/12/24 06:44:34;;;;;;;5.38;4.15;;;8.30;99.90;;;;;;5013797;28;20029;-53
2021/12/24 06:47:01;;;;;;;6.05;3.60;;;8.40;99.90;;;;;;5014608;28;20034;-51
2021/12/24 06:49:27;;;;;;;6.80;3.85;;;8.40;99.90;;;;;;5014724;28;20053;-53
2021/12/24 06:51:53;;;;;;;11.02;4.55;;;8.40;99.90;;;;;;5013695;28;20049;-50
2021/12/24 06:54:18;;;;;;;8.18;3.80;;;8.40;99.90;;;;;;5013350;28;20072;-52
2021/12/24 06:56:45;;;;;;;7.07;3.50;;;8.40;99.90;;;;;;5013277;28;20074;-55
2021/12/24 06:59:11;;;;;;;7.93;5.53;;;8.40;99.90;;;;;;5013286;28;20034;-53
2021/12/24 07:01:36;;;;;;;9.85;5.55;;;8.40;99.90;;;;;;5013542;28;20523;-51
2021/12/24 07:04:02;;;;;;;14.52;8.02;;;8.50;99.90;;;;;;5014395;28;20026;-53
2021/12/24 07:06:28;;;;;;;11.18;6.30;;;8.50;99.90;;;;;;5013080;28;20477;-49
2021/12/24 07:08:55;;;;;;;10.25;6.80;;;8.50;99.90;;;;;;5013139;28;20033;-49
2021/12/24 07:11:21;;;;;;;15.18;7.55;;;8.50;99.90;;;;;;5014369;28;20029;-50
2021/12/24 07:13:46;;;;;;;10.35;6.60;;;8.50;99.90;;;;;;5030316;28;20109;-52
2021/12/24 07:16:12;;;;;;;8.27;4.53;;;8.50;99.90;;;;;;5013180;28;20028;-53
2021/12/24 07:18:38;;;;;;;9.00;4.10;;;8.50;99.90;;;;;;5014463;28;20444;-53
2021/12/24 07:21:05;;;;;;;10.48;3.10;;;8.50;99.90;;;;;;5014389;28;20389;-51
2021/12/24 07:23:30;;;;;;;9.15;4.40;;;8.50;99.90;;;;;;5029257;28;20061;-53
2021/12/24 07:25:56;;;;;;;11.68;5.38;;;8.50;99.90;;;;;;5013979;28;20057;-54
2021/12/24 07:28:22;;;;;;;14.75;7.47;;;8.50;99.90;;;;;;5013997;28;20423;-52
2021/12/24 07:30:48;;;;;;;13.63;6.55;;;8.50;99.90;;;;;;5012646;28;20030;-50
2021/12/24 07:33:14;;;;;;;14.73;6.65;;;8.50;99.90;;;;;;5013917;28;20021;-50
2021/12/24 07:35:44;;;;;;;12.75;4.97;;;8.50;99.90;;;;;;5014136;28;20547;-52
2021/12/24 07:38:13;;;;;;;11.50;5.28;;;8.60;99.90;;;;;;5013760;28;20029;-51
2021/12/24 07:40:43;;;;;;;7.78;4.30;;;8.60;99.90;;;;;;5013404;28;20018;-49
2021/12/24 07:43:09;;;;;;;12.52;5.38;;;8.60;99.90;;;;;;5013490;28;20022;-54
2021/12/24 07:45:37;;;;;;;12.98;5.25;;;8.60;99.90;;;;;;5013632;28;20025;-51
2021/12/24 07:48:15;;;;;;;8.95;4.32;;;8.60;99.90;;;;;;5014006;28;20017;-50
2021/12/24 07:53:15;;;;;;;16.05;5.30;;;8.60;99.90;;;;;;5013959;28;20033;-52
2021/12/24 07:55:41;;;;;;;13.95;4.70;;;8.60;99.90;;;;;;5012596;28;20030;-49
2021/12/24 07:58:08;;;;;;;10.32;4.85;;;8.60;99.90;;;;;;5013849;28;20022;-53
2021/12/24 08:00:36;;;;;;;11.77;4.72;;;8.60;99.90;;;;;;5013580;28;20018;-51
2021/12/24 08:03:03;;;;;;;16.95;7.80;;;8.60;99.90;;;;;;5012614;28;20472;-49
2021/12/24 08:05:29;;;;;;;15.80;6.95;;;8.60;99.90;;;;;;5012210;28;20026;-52
2021/12/24 08:07:55;;;;;;;21.23;8.30;;;8.70;99.90;;;;;;5028759;28;20029;-52
2021/12/24 08:10:24;;;;;;;9.10;5.07;;;8.70;99.90;;;;;;5013706;28;20022;-49
2021/12/24 08:12:50;;;;;;;9.88;4.93;;;8.70;99.90;;;;;;5012294;28;20129;-52
2021/12/24 08:15:17;;;;;;;26.77;13.85;;;8.70;99.90;;;;;;5013444;28;20109;-50
2021/12/24 08:18:08;;;;;;;12.50;5.75;;;8.70;99.90;;;;;;5012190;28;20056;-51
2021/12/24 08:20:33;;;;;;;10.73;4.70;;;8.70;99.90;;;;;;5013684;28;20129;-50
2021/12/24 08:22:59;;;;;;;7.63;3.45;;;8.70;99.90;;;;;;5012462;28;20105;-50
2021/12/24 08:25:25;;;;;;;10.65;3.95;;;8.80;99.90;;;;;;5013269;28;20370;-54
2021/12/24 08:27:51;;;;;;;7.65;3.03;;;8.80;99.90;;;;;;5012150;28;20029;-53
2021/12/24 08:30:17;;;;;;;5.85;2.95;;;8.80;99.90;;;;;;5013331;28;20018;-52
2021/12/24 08:32:42;;;;;;;4.15;2.63;;;8.80;99.90;;;;;;5014920;28;20030;-52
2021/12/24 08:35:15;;;;;;;6.70;3.00;;;8.80;99.90;;;;;;5014595;28;20049;-52
2021/12/24 08:37:41;;;;;;;7.95;2.40;;;8.80;99.90;;;;;;5013584;28;20074;-51
2021/12/24 08:40:08;;;;;;;7.20;3.33;;;8.90;99.90;;;;;;5013238;28;20026;-52
2021/12/24 08:42:34;;;;;;;6.82;3.00;;;8.90;99.90;;;;;;5013525;28;20030;-50
2021/12/24 08:45:00;;;;;;;5.85;3.28;;;8.90;99.90;;;;;;5011992;28;20021;-53
2021/12/24 08:47:25;;;;;;;8.38;3.03;;;9.00;99.90;;;;;;5013063;28;20077;-52
2021/12/24 08:49:51;;;;;;;8.55;2.97;;;9.00;99.90;;;;;;5013264;28;20096;-52
2021/12/24 08:52:17;;;;;;;10.90;4.00;;;9.00;99.90;;;;;;5012350;28;20117;-55
2021/12/24 08:54:42;;;;;;;9.38;2.70;;;9.00;99.90;;;;;;5015931;28;20094;-50
2021/12/24 08:57:08;;;;;;;7.65;2.70;;;9.00;99.90;;;;;;5016678;28;20025;-50
2021/12/24 08:59:33;;;;;;;5.78;2.85;;;9.00;99.90;;;;;;5015854;28;20029;-53
2021/12/24 09:02:01;;;;;;;4.82;2.05;;;9.10;99.90;;;;;;5016620;28;20018;-49
2021/12/24 09:04:27;;;;;;;5.65;2.40;;;9.10;99.90;;;;;;5016932;28;20022;-51
2021/12/24 09:06:53;;;;;;;4.88;3.13;;;9.00;99.90;;;;;;5016822;28;20037;-54
2021/12/24 09:09:18;;;;;;;13.15;3.97;;;9.10;99.90;;;;;;5016504;28;20037;-53
2021/12/24 09:11:46;;;;;;;4.47;2.28;;;9.10;99.90;;;;;;5015473;28;20026;-51
2021/12/24 09:14:17;;;;;;;5.13;3.33;;;9.10;99.90;;;;;;5015211;28;20018;-49
2021/12/24 09:16:44;;;;;;;6.28;2.45;;;9.10;99.90;;;;;;5016044;28;20018;-49
2021/12/24 09:19:13;;;;;;;5.65;2.33;;;9.10;99.90;;;;;;5016702;28;20464;-53
2021/12/24 09:21:39;;;;;;;8.15;3.50;;;9.10;99.90;;;;;;5015107;28;20057;-54
2021/12/24 09:24:07;;;;;;;5.38;2.05;;;9.10;99.90;;;;;;5016239;28;20018;-51
2021/12/24 09:26:34;;;;;;;11.30;3.05;;;9.10;99.90;;;;;;5015284;28;20052;-51
2021/12/24 09:29:01;;;;;;;6.45;1.92;;;9.10;99.90;;;;;;5034886;28;20033;-54
2021/12/24 09:31:27;;;;;;;10.07;4.35;;;9.20;99.90;;;;;;5054878;28;20029;-51
2021/12/24 09:33:54;;;;;;;7.57;2.55;;;9.20;99.90;;;;;;5054558;28;20112;-51
2021/12/24 09:36:25;;;;;;;8.73;3.00;;;9.20;99.90;;;;;;5054530;28;20028;-52
2021/12/24 09:39:00;;;;;;;7.70;4.00;;;9.20;99.90;;;;;;5030970;28;20033;-52
2021/12/24 09:41:26;;;;;;;6.55;2.70;;;9.30;99.90;;;;;;5016062;28;20049;-51
2021/12/24 09:43:53;;;;;;;5.85;2.55;;;9.30;99.90;;;;;;5015987;28;20061;-55
2021/12/24 09:46:18;;;;;;;6.63;2.40;;;9.30;99.90;;;;;;5014982;28;20037;-50
2021/12/24 09:48:44;;;;;;;6.22;2.47;;;9.40;99.90;;;;;;5014569;28;20029;-51
2021/12/24 09:51:10;;;;;;;10.65;3.53;;;9.40;99.90;;;;;;5015460;28;20053;-50
2021/12/24 09:53:36;;;;;;;6.55;2.88;;;9.40;99.90;;;;;;5014831;28;20076;-52
2021/12/24 09:56:04;;;;;;;15.57;4.35;;;9.40;99.90;;;;;;5014394;28;20104;-54
2021/12/24 09:58:30;;;;;;;7.07;2.83;;;9.50;99.90;;;;;;5014528;28;20057;-50
2021/12/24 10:00:56;;;;;;;6.53;2.45;;;9.50;99.90;;;;;;5015621;28;20068;-53
2021/12/24 10:03:36;;;;;;;8.02;2.90;;;9.60;99.90;;;;;;5015247;28;20095;-49
2021/12/24 10:06:03;;;;;;;8.45;2.95;;;9.70;99.90;;;;;;5015449;28;20109;-53
2021/12/24 10:08:31;;;;;;;8.07;2.35;;;9.70;99.90;;;;;;5015689;28;20088;-51
2021/12/24 10:11:03;;;;;;;7.95;2.22;;;9.70;99.90;;;;;;5015342;28;20026;-51
2021/12/24 10:13:43;;;;;;;7.15;2.53;;;9.80;99.90;;;;;;5015480;28;20018;-51
2021/12/24 10:16:13;;;;;;;8.05;2.40;;;9.80;99.90;;;;;;5014480;28;20060;-50
2021/12/24 10:18:42;;;;;;;4.63;2.10;;;9.80;99.90;;;;;;5015007;28;20026;-50
2021/12/24 10:21:11;;;;;;;6.13;2.42;;;9.80;99.90;;;;;;5014258;28;20034;-51
2021/12/24 10:23:44;;;;;;;5.07;2.60;;;9.80;99.90;;;;;;5015231;28;20026;-50
2021/12/24 10:26:16;;;;;;;7.03;2.83;;;9.80;99.90;;;;;;5014674;28;20026;-51
2021/12/24 10:29:06;;;;;;;5.97;2.28;;;9.90;99.90;;;;;;5015132;28;20045;-51
2021/12/24 10:31:53;;;;;;;10.45;3.33;;;9.90;99.90;;;;;;5015244;28;20030;-54
2021/12/24 10:34:27;;;;;;;10.20;3.65;;;9.80;99.90;;;;;;5013528;28;20026;-52
2021/12/24 10:37:13;;;;;;;5.82;2.92;;;9.80;99.90;;;;;;5014957;28;20021;-51
2021/12/24 10:39:38;;;;;;;10.52;2.50;;;9.90;99.90;;;;;;5017807;28;20029;-49
2021/12/24 10:42:17;;;;;;;4.20;1.92;;;9.90;99.90;;;;;;5013915;28;20037;-51
2021/12/24 10:44:45;;;;;;;5.80;2.55;;;9.90;99.90;;;;;;5013469;28;20030;-52
2021/12/24 10:47:16;;;;;;;28.17;14.13;;;10.00;99.90;;;;;;5014674;28;20155;-51
2021/12/24 10:50:05;;;;;;;17.30;9.77;;;10.00;99.90;;;;;;5014295;28;20025;-53
2021/12/24 10:55:17;;;;;;;5.30;3.17;;;10.10;99.90;;;;;;5015061;28;20026;-51
2021/12/24 10:57:46;;;;;;;10.68;2.85;;;10.30;99.90;;;;;;5014532;28;20022;-51
2021/12/24 11:00:24;;;;;;;9.25;2.85;;;10.30;99.90;;;;;;5013101;28;20022;-52
2021/12/24 11:02:55;;;;;;;10.63;2.95;;;10.30;99.90;;;;;;5013358;28;20037;-50
2021/12/24 11:05:42;;;;;;;8.32;2.50;;;10.30;99.90;;;;;;5013286;28;20032;-53
2021/12/24 11:08:14;;;;;;;9.23;2.35;;;10.40;99.90;;;;;;5013126;28;20492;-51
2021/12/24 11:10:52;;;;;;;4.90;1.92;;;10.40;99.90;;;;;;5014894;28;20034;-50
2021/12/24 11:13:21;;;;;;;14.63;4.28;;;10.40;99.90;;;;;;5014437;28;20361;-49
2021/12/24 11:15:49;;;;;;;11.00;4.05;;;10.40;99.90;;;;;;5014633;28;20108;-49
2021/12/24 11:18:24;;;;;;;7.28;2.40;;;10.30;99.90;;;;;;5033881;28;20029;-51
2021/12/24 11:20:53;;;;;;;11.07;3.33;;;10.30;99.90;;;;;;5033945;28;20022;-56
2021/12/24 11:23:20;;;;;;;3.72;2.05;;;10.40;99.90;;;;;;5024204;28;20022;-49
2021/12/24 11:25:55;;;;;;;8.70;2.33;;;10.40;99.90;;;;;;5013570;28;20053;-50
2021/12/24 11:28:22;;;;;;;11.35;2.40;;;10.40;99.90;;;;;;5013612;28;20080;-51
2021/12/24 11:30:52;;;;;;;7.00;2.25;;;10.40;99.90;;;;;;5013917;28;20037;-55
2021/12/24 11:33:24;;;;;;;9.95;3.58;;;10.40;99.90;;;;;;5014008;28;20049;-52
2021/12/24 11:35:50;;;;;;;;;;;10.50;99.90;;;;;;5014300;28;20053;-56
2021/12/24 11:38:19;;;;;;;6.90;2.38;;;10.50;99.90;;;;;;5012610;28;19932;-50
2021/12/24 11:40:46;;;;;;;8.55;3.63;;;10.60;99.90;;;;;;5013960;28;20022;-53
2021/12/24 11:43:13;;;;;;;10.88;3.20;;;10.60;99.90;;;;;;5012937;28;20033;-50
2021/12/24 11:45:39;;;;;;;6.93;2.17;;;10.70;99.90;;;;;;5012545;28;20022;-50
2021/12/24 11:48:06;;;;;;;9.23;2.15;;;10.70;99.90;;;;;;5014081;28;20472;-50
2021/12/24 11:50:32;;;;;;;8.45;3.10;;;10.70;99.90;;;;;;5012739;28;20088;-54
2021/12/24 11:53:01;;;;;;;14.75;7.88;;;10.70;99.90;;;;;;5013818;28;20065;-54
2021/12/24 11:55:33;;;;;;;8.68;3.30;;;10.70;99.90;;;;;;5012497;28;20080;-53
2021/12/24 11:58:00;;;;;;;;;;;10.70;99.90;;;;;;5014450;28;20022;-52
2021/12/24 12:00:31;;;;;;;9.73;3.17;;;10.70;99.90;;;;;;5013117;28;19968;-51
2021/12/24 12:02:57;;;;;;;7.90;2.58;;;10.60;99.90;;;;;;5011945;28;20114;-53
2021/12/24 12:05:35;;;;;;;7.25;2.13;;;10.60;99.90;;;;;;5023316;28;20029;-56
2021/12/24 12:08:22;;;;;;;12.63;2.38;;;10.60;99.90;;;;;;5032108;28;20091;-53
2021/12/24 12:10:53;;;;;;;12.23;5.55;;;10.50;99.90;;;;;;5033322;28;20057;-49
2021/12/24 12:13:54;;;;;;;15.15;4.03;;;10.50;99.90;;;;;;5033480;28;20068;-53
2021/12/24 12:16:54;;;;;;;11.90;2.97;;;10.60;99.90;;;;;;5014925;28;20117;-53
2021/12/24 12:19:31;;;;;;;6.95;2.60;;;10.70;99.90;;;;;;5033629;28;20018;-53
2021/12/24 12:25:09;;;;;;;8.57;2.70;;;10.70;99.90;;;;;;5033317;28;20030;-51
2021/12/24 12:27:40;;;;;;;11.20;2.15;;;10.80;99.90;;;;;;5035803;28;20022;-53
2021/12/24 12:31:02;;;;;;;13.70;3.15;;;10.70;99.90;;;;;;5035914;28;20052;-51
2021/12/24 12:33:32;;;;;;;10.65;2.83;;;10.80;99.90;;;;;;5037223;28;20067;-53
2021/12/24 12:36:02;;;;;;;9.13;2.38;;;10.80;99.90;;;;;;5018140;28;20127;-54
2021/12/24 12:38:40;;;;;;;5.00;2.38;;;10.80;99.90;;;;;;5015884;28;20029;-54
2021/12/24 12:41:19;;;;;;;10.82;3.38;;;10.80;99.90;;;;;;5016079;28;20026;-52
2021/12/24 12:43:46;;;;;;;8.48;2.50;;;10.70;99.90;;;;;;5017017;28;20022;-49
2021/12/24 12:46:23;;;;;;;12.43;3.92;;;10.80;99.90;;;;;;5017535;28;20094;-51
2021/12/24 12:48:53;;;;;;;6.95;2.72;;;10.80;99.90;;;;;;5017326;28;20472;-52
2021/12/24 12:51:21;;;;;;;9.18;2.60;;;10.80;99.90;;;;;;5017057;28;20037;-50
2021/12/24 12:53:48;;;;;;;21.20;6.05;;;10.90;99.90;;;;;;5016521;28;20025;-53
2021/12/24 12:56:30;;;;;;;74.05;23.83;;;10.90;99.90;;;;;;5015845;28;20080;-52
2021/12/24 12:59:06;;;;;;;35.90;14.75;;;10.90;99.90;;;;;;5017112;28;20042;-52
2021/12/24 13:01:47;;;;;;;50.10;19.98;;;10.90;99.90;;;;;;5016805;28;20024;-56
2021/12/24 13:04:14;;;;;;;15.33;4.77;;;11.00;99.90;;;;;;5015536;28;20026;-55
2021/12/24 13:06:41;;;;;;;6.93;3.55;;;11.00;99.90;;;;;;5015383;28;20030;-49
2021/12/24 13:09:16;;;;;;;7.72;4.25;;;11.00;99.90;;;;;;5015663;28;20033;-51
2021/12/24 13:12:10;;;;;;;10.05;4.45;;;11.10;99.90;;;;;;5016838;28;20030;-51
2021/12/24 13:14:36;;;;;;;9.38;4.72;;;11.10;99.90;;;;;;5016489;28;20022;-50
2021/12/24 13:17:16;;;;;;;15.23;4.53;;;11.20;99.90;;;;;;5015507;28;20121;-51
2021/12/24 13:22:33;;;;;;;;;;;11.10;99.90;;;;;;5016715;28;20022;-52
2021/12/24 13:25:05;;;;;;;9.00;2.15;;;11.00;99.90;;;;;;5022370;28;19912;-53
2021/12/24 13:27:53;;;;;;;;;;;11.10;99.90;;;;;;5035210;28;20033;-53
2021/12/24 13:30:27;;;;;;;13.18;4.25;;;11.00;99.90;;;;;;5036247;28;19909;-50
2021/12/24 13:33:00;;;;;;;13.02;3.65;;;11.00;99.90;;;;;;5035830;28;20025;-52
2021/12/24 13:35:39;;;;;;;7.25;3.05;;;11.00;99.90;;;;;;5034617;28;20026;-51
2021/12/24 13:38:14;;;;;;;11.93;3.00;;;11.00;99.90;;;;;;5035110;28;20026;-51
2021/12/24 13:40:40;;;;;;;7.65;2.88;;;10.90;99.90;;;;;;5034536;28;20026;-54
2021/12/24 13:43:11;;;;;;;8.75;2.03;;;11.00;99.90;;;;;;5035024;28;20022;-51
2021/12/24 13:46:05;;;;;;;8.57;1.92;;;10.90;99.90;;;;;;5035302;28;20017;-52
2021/12/24 13:48:44;;;;;;;6.07;2.08;;;10.90;99.90;;;;;;5035913;28;20018;-53
2021/12/24 13:56:48;;;;;;;9.13;2.00;;;10.80;99.90;;;;;;5036077;28;20044;-51
2021/12/24 13:59:19;;;;;;;9.10;2.85;;;10.80;99.90;;;;;;5035863;28;20022;-53
2021/12/24 14:01:45;;;;;;;10.32;2.65;;;10.70;99.90;;;;;;5035619;28;20120;-51
2021/12/24 14:04:11;;;;;;;7.43;1.85;;;10.70;99.90;;;;;;5035315;28;20108;-51
2021/12/24 14:06:48;;;;;;;9.65;2.60;;;10.60;99.90;;;;;;5034312;28;20036;-49
2021/12/24 14:09:26;;;;;;;22.08;4.35;;;10.60;99.90;;;;;;5034875;28;20053;-51
2021/12/24 14:11:54;;;;;;;7.45;1.95;;;10.60;99.90;;;;;;5033979;28;20056;-53
2021/12/24 14:14:26;;;;;;;8.02;2.10;;;10.50;99.90;;;;;;5035495;28;20021;-53
2021/12/24 14:17:48;;;;;;;4.03;1.80;;;10.50;99.90;;;;;;5033879;28;20064;-52
2021/12/24 14:22:27;;;;;;;10.45;3.17;;;10.50;99.90;;;;;;5035535;28;20025;-53
2021/12/24 14:25:10;;;;;;;28.45;10.35;;;10.40;99.90;;;;;;5034929;28;20048;-53
2021/12/24 14:27:38;;;;;;;7.28;3.10;;;10.40;99.90;;;;;;5034903;28;20033;-55
2021/12/24 14:30:03;;;;;;;10.60;3.75;;;10.40;99.90;;;;;;5035144;28;20022;-54
2021/12/24 14:32:45;;;;;;;10.75;4.20;;;10.40;99.90;;;;;;5035091;28;20048;-54
2021/12/24 14:35:16;;;;;;;6.90;3.50;;;10.30;99.90;;;;;;5034498;28;20021;-53
2021/12/24 14:38:06;;;;;;;15.30;5.10;;;10.30;99.90;;;;;;5033485;28;20488;-53
2021/12/24 14:40:35;;;;;;;21.05;9.82;;;10.20;99.90;;;;;;5034073;28;20059;-54
2021/12/24 14:43:17;;;;;;;23.92;11.30;;;10.20;99.90;;;;;;5033359;28;20021;-53
2021/12/24 14:45:46;;;;;;;23.60;11.98;;;10.10;99.90;;;;;;5033330;28;20443;-50
2021/12/24 14:48:25;;;;;;;22.75;8.23;;;10.10;99.90;;;;;;5033501;28;20025;-51
2021/12/24 14:51:05;;;;;;;14.10;4.75;;;10.10;99.90;;;;;;5032034;28;20042;-54
2021/12/24 14:53:43;;;;;;;10.02;3.72;;;10.00;99.90;;;;;;5033437;28;20472;-54